createdAt,value
2022-12-01T00:03:06.309Z,18.55
2022-12-01T00:06:58.839Z,21.73
2022-12-01T00:10:51.417Z,22.80
2022-12-01T00:14:44.381Z,29.15
2022-12-01T00:18:37.403Z,22.35
2022-12-01T00:22:30.018Z,25.77
2022-12-01T00:26:23.721Z,24.90
2022-12-01T00:30:18.087Z,23.92
2022-12-01T00:34:22.918Z,24.30
2022-12-01T00:38:16.078Z,23.17
2022-12-01T00:42:13.276Z,20.17
2022-12-01T00:46:06.332Z,24.98
2022-12-01T00:49:59.714Z,32.20
2022-12-01T00:53:52.264Z,26.50
2022-12-01T00:57:44.902Z,27.25
2022-12-01T01:01:38.004Z,26.27
2022-12-01T01:05:30.705Z,22.33
2022-12-01T01:09:23.399Z,19.73
2022-12-01T01:13:16.956Z,15.25
2022-12-01T01:17:09.608Z,16.70
2022-12-01T01:21:08.226Z,14.48
2022-12-01T01:25:00.558Z,13.30
2022-12-01T01:28:56.201Z,12.15
2022-12-01T01:32:48.773Z,12.50
2022-12-01T01:36:41.246Z,13.88
2022-12-01T01:40:33.953Z,12.45
2022-12-01T01:44:50.314Z,11.95
2022-12-01T01:48:50.413Z,11.80
2022-12-01T01:52:52.023Z,13.10
2022-12-01T01:56:46.229Z,13.23
2022-12-01T02:00:42.966Z,14.85
2022-12-01T02:04:37.952Z,14.00
2022-12-01T02:08:31.229Z,10.70
2022-12-01T02:12:51.757Z,7.97
2022-12-01T02:16:57.484Z,9.63
2022-12-01T02:21:27.363Z,8.02
2022-12-01T02:25:40.616Z,11.68
2022-12-01T02:29:51.432Z,13.40
2022-12-01T02:33:53.128Z,11.55
2022-12-01T02:38:09.944Z,10.63
2022-12-01T02:42:40.131Z,9.13
2022-12-01T02:46:42.161Z,9.88
2022-12-01T02:50:36.803Z,8.65
2022-12-01T02:54:31.436Z,7.40
2022-12-01T02:58:24.021Z,8.70
2022-12-01T03:02:25.406Z,12.02
2022-12-01T03:06:46.665Z,11.25
2022-12-01T03:10:54.583Z,10.70
2022-12-01T03:15:15.453Z,10.43
2022-12-01T03:19:19.851Z,12.90
2022-12-01T03:23:20.659Z,10.93
2022-12-01T03:27:18.223Z,12.93
2022-12-01T03:35:14.722Z,17.48
2022-12-01T03:39:15.293Z,13.40
2022-12-01T03:43:12.191Z,12.68
2022-12-01T03:47:09.694Z,11.68
2022-12-01T03:55:20.420Z,9.95
2022-12-01T03:59:14.622Z,17.92
2022-12-01T04:03:07.799Z,11.40
2022-12-01T04:07:00.508Z,12.52
2022-12-01T04:10:53.056Z,11.52
2022-12-01T04:14:45.414Z,9.73
2022-12-01T04:18:38.006Z,12.32
2022-12-01T04:22:30.467Z,10.98
2022-12-01T04:26:23.129Z,11.45
2022-12-01T04:30:15.605Z,14.25
2022-12-01T04:34:08.483Z,13.75
2022-12-01T04:38:01.080Z,12.88
2022-12-01T04:41:53.790Z,13.57
2022-12-01T04:45:46.495Z,12.75
2022-12-01T04:49:39.306Z,15.95
2022-12-01T04:53:32.140Z,20.05
2022-12-01T04:57:24.696Z,18.95
2022-12-01T05:01:18.902Z,16.55
2022-12-01T05:05:11.684Z,18.70
2022-12-01T05:09:04.321Z,18.05
2022-12-01T05:12:58.483Z,17.25
2022-12-01T05:16:51.214Z,19.05
2022-12-01T05:20:58.677Z,15.80
2022-12-01T05:24:51.280Z,16.98
2022-12-01T05:28:43.855Z,20.83
2022-12-01T05:32:36.760Z,22.73
2022-12-01T05:36:29.607Z,16.00
2022-12-01T05:40:22.113Z,18.13
2022-12-01T05:44:14.764Z,18.35
2022-12-01T05:48:07.461Z,18.98
2022-12-01T05:52:00.030Z,19.25
2022-12-01T05:55:54.442Z,19.10
2022-12-01T05:59:50.373Z,17.90
2022-12-01T06:03:43.141Z,17.95
2022-12-01T06:07:36.107Z,19.85
2022-12-01T06:11:28.604Z,21.55
2022-12-01T06:15:21.204Z,18.25
2022-12-01T06:19:13.553Z,16.85
2022-12-01T06:23:06.062Z,17.10
2022-12-01T06:26:58.781Z,18.48
2022-12-01T06:30:51.375Z,18.02
2022-12-01T06:34:44.037Z,18.23
2022-12-01T06:38:37.346Z,33.00
2022-12-01T06:42:32.427Z,20.75
2022-12-01T06:46:25.064Z,20.88
2022-12-01T06:50:17.896Z,20.17
2022-12-01T06:54:12.156Z,20.67
2022-12-01T06:58:05.790Z,23.48
2022-12-01T07:01:59.043Z,27.42
2022-12-01T07:05:58.748Z,35.63
2022-12-01T07:09:51.795Z,30.25
2022-12-01T07:13:45.701Z,25.42
2022-12-01T07:17:38.282Z,25.88
2022-12-01T07:21:30.827Z,32.90
2022-12-01T07:25:23.536Z,34.33
2022-12-01T07:29:16.256Z,18.23
2022-12-01T07:33:08.688Z,19.65
2022-12-01T07:37:01.254Z,22.13
2022-12-01T07:40:53.802Z,18.17
2022-12-01T07:44:46.248Z,17.95
2022-12-01T07:48:40.805Z,20.27
2022-12-01T07:52:33.393Z,25.75
2022-12-01T07:56:26.070Z,25.63
2022-12-01T08:00:18.911Z,30.92
2022-12-01T08:04:11.357Z,24.25
2022-12-01T08:08:04.137Z,25.33
2022-12-01T08:11:56.798Z,22.05
2022-12-01T08:15:49.164Z,33.65
2022-12-01T08:19:42.091Z,38.75
2022-12-01T08:23:35.130Z,35.67
2022-12-01T08:27:27.746Z,34.05
2022-12-01T08:31:24.563Z,28.20
2022-12-01T08:35:17.128Z,25.02
2022-12-01T08:39:10.077Z,27.77
2022-12-01T08:43:02.723Z,31.00
2022-12-01T08:46:55.712Z,25.40
2022-12-01T08:50:48.365Z,27.58
2022-12-01T08:54:41.094Z,26.88
2022-12-01T08:58:34.086Z,30.15
2022-12-01T09:02:26.855Z,26.02
2022-12-01T09:06:20.860Z,29.65
2022-12-01T09:10:13.607Z,26.80
2022-12-01T09:14:06.023Z,24.40
2022-12-01T09:17:58.610Z,29.48
2022-12-01T09:21:51.266Z,30.67
2022-12-01T09:25:43.723Z,30.70
2022-12-01T09:29:36.371Z,31.27
2022-12-01T09:33:29.113Z,32.47
2022-12-01T09:37:21.582Z,33.55
2022-12-01T09:41:25.098Z,36.72
2022-12-01T09:45:28.274Z,27.95
2022-12-01T09:49:25.436Z,27.17
2022-12-01T09:53:22.458Z,32.33
2022-12-01T09:57:24.607Z,26.38
2022-12-01T10:01:26.923Z,24.75
2022-12-01T10:05:27.344Z,21.17
2022-12-01T10:09:35.184Z,19.85
2022-12-01T10:13:29.074Z,20.23
2022-12-01T10:17:21.593Z,27.52
2022-12-01T10:21:19.928Z,29.10
2022-12-01T10:25:21.621Z,33.33
2022-12-01T10:29:35.818Z,28.48
2022-12-01T10:33:40.338Z,24.08
2022-12-01T10:37:33.135Z,23.15
2022-12-01T10:41:29.856Z,22.23
2022-12-01T10:45:44.492Z,22.93
2022-12-01T10:49:39.296Z,23.08
2022-12-01T10:53:34.076Z,21.10
2022-12-01T10:57:29.579Z,23.30
2022-12-01T11:01:25.136Z,21.27
2022-12-01T11:05:33.013Z,20.70
2022-12-01T11:09:28.635Z,22.85
2022-12-01T11:13:30.321Z,19.88
2022-12-01T11:17:22.857Z,19.35
2022-12-01T11:21:26.710Z,22.23
2022-12-01T11:25:22.605Z,22.48
2022-12-01T11:29:36.266Z,22.23
2022-12-01T11:33:31.084Z,18.73
2022-12-01T11:37:29.475Z,17.35
2022-12-01T11:41:28.411Z,17.70
2022-12-01T11:45:21.068Z,19.92
2022-12-01T11:49:19.805Z,19.83
2022-12-01T11:53:30.280Z,17.45
2022-12-01T11:57:37.925Z,17.10
2022-12-01T12:01:57.944Z,17.10
2022-12-01T12:06:39.499Z,16.08
2022-12-01T12:10:35.892Z,19.92
2022-12-01T12:14:54.735Z,23.65
2022-12-01T12:18:50.385Z,17.42
2022-12-01T12:23:07.498Z,20.30
2022-12-01T12:27:22.594Z,17.67
2022-12-01T12:31:44.427Z,21.88
2022-12-01T12:35:55.414Z,19.83
2022-12-01T12:40:06.134Z,18.83
2022-12-01T12:44:24.452Z,19.92
2022-12-01T12:48:57.277Z,18.17
2022-12-01T12:53:01.528Z,16.50
2022-12-01T12:57:36.350Z,20.00
2022-12-01T13:01:36.629Z,19.50
2022-12-01T13:05:31.225Z,18.55
2022-12-01T13:09:29.926Z,17.05
2022-12-01T13:13:44.616Z,21.60
2022-12-01T13:17:40.905Z,39.13
2022-12-01T13:21:40.860Z,22.52
2022-12-01T13:25:38.814Z,20.00
2022-12-01T13:29:40.975Z,18.90
2022-12-01T13:33:37.957Z,27.83
2022-12-01T13:37:34.579Z,31.45
2022-12-01T13:41:32.369Z,41.63
2022-12-01T13:45:29.155Z,21.92
2022-12-01T13:49:42.667Z,21.88
2022-12-01T13:53:37.196Z,24.17
2022-12-01T13:57:34.948Z,22.23
2022-12-01T14:01:29.016Z,18.13
2022-12-01T14:05:39.872Z,17.35
2022-12-01T14:09:37.465Z,21.92
2022-12-01T14:13:31.634Z,18.35
2022-12-01T14:17:33.737Z,18.77
2022-12-01T14:21:47.591Z,21.42
2022-12-01T14:25:41.151Z,21.13
2022-12-01T14:29:38.636Z,19.63
2022-12-01T14:33:51.287Z,22.67
2022-12-01T14:37:47.069Z,25.27
2022-12-01T14:41:52.152Z,23.75
2022-12-01T14:45:55.781Z,26.13
2022-12-01T14:49:55.146Z,23.10
2022-12-01T14:53:50.379Z,25.58
2022-12-01T14:57:59.852Z,27.38
2022-12-01T15:01:56.050Z,25.02
2022-12-01T15:05:48.842Z,29.33
2022-12-01T15:09:59.109Z,28.67
2022-12-01T15:13:54.645Z,38.42
2022-12-01T15:17:47.679Z,35.92
2022-12-01T15:21:40.467Z,49.42
2022-12-01T15:25:36.486Z,55.97
2022-12-01T15:29:35.507Z,65.10
2022-12-01T15:33:37.178Z,64.40
2022-12-01T15:37:39.348Z,90.32
2022-12-01T15:41:32.538Z,73.07
2022-12-01T15:45:25.375Z,70.18
2022-12-01T15:49:30.211Z,67.82
2022-12-01T15:53:27.437Z,51.42
2022-12-01T15:57:21.912Z,47.85
2022-12-01T16:01:21.490Z,38.95
2022-12-01T16:05:14.137Z,36.95
2022-12-01T16:09:33.701Z,35.55
2022-12-01T16:13:35.485Z,34.58
2022-12-01T16:17:40.868Z,40.45
2022-12-01T16:21:42.758Z,38.42
2022-12-01T16:25:44.343Z,59.28
2022-12-01T16:29:51.443Z,49.70
2022-12-01T16:33:44.109Z,44.87
2022-12-01T16:37:37.014Z,44.63
2022-12-01T16:41:38.335Z,39.35
2022-12-01T16:45:31.208Z,37.97
2022-12-01T16:49:23.982Z,43.22
2022-12-01T16:53:17.501Z,40.10
2022-12-01T16:57:10.423Z,42.17
2022-12-01T17:01:05.500Z,36.33
2022-12-01T17:04:58.277Z,31.60
2022-12-01T17:08:51.371Z,42.53
2022-12-01T17:12:44.277Z,37.85
2022-12-01T17:16:37.434Z,38.28
2022-12-01T17:20:30.245Z,39.88
2022-12-01T17:24:23.171Z,36.70
2022-12-01T17:28:16.206Z,52.20
2022-12-01T17:32:11.661Z,82.85
2022-12-01T17:36:08.297Z,98.82
2022-12-01T17:40:01.354Z,89.03
2022-12-01T17:43:54.464Z,69.55
2022-12-01T17:47:47.757Z,56.63
2022-12-01T17:51:41.385Z,49.80
2022-12-01T17:55:33.970Z,42.50
2022-12-01T17:59:26.609Z,49.33
2022-12-01T18:03:20.375Z,51.40
2022-12-01T18:07:13.817Z,74.72
2022-12-01T18:11:10.607Z,73.07
2022-12-01T18:15:03.799Z,67.22
2022-12-01T18:19:00.250Z,54.25
2022-12-01T18:22:53.055Z,56.65
2022-12-01T18:26:47.387Z,55.15
2022-12-01T18:30:40.801Z,44.80
2022-12-01T18:34:34.615Z,42.47
2022-12-01T18:38:28.334Z,44.45
2022-12-01T18:42:21.388Z,41.90
2022-12-01T18:46:16.235Z,40.65
2022-12-01T18:50:09.492Z,37.13
2022-12-01T18:54:04.710Z,40.45
2022-12-01T18:57:57.838Z,34.50
2022-12-01T19:01:52.295Z,37.67
2022-12-01T19:05:46.469Z,42.45
2022-12-01T19:09:39.815Z,41.97
2022-12-01T19:13:34.559Z,36.45
2022-12-01T19:17:27.909Z,31.35
2022-12-01T19:21:21.084Z,35.65
2022-12-01T19:25:14.490Z,32.72
2022-12-01T19:29:08.032Z,30.70
2022-12-01T19:33:01.057Z,31.52
2022-12-01T19:36:54.486Z,30.77
2022-12-01T19:40:47.600Z,36.45
2022-12-01T19:44:40.608Z,35.97
2022-12-01T19:48:33.528Z,33.05
2022-12-01T19:52:26.807Z,38.03
2022-12-01T19:56:20.564Z,39.88
2022-12-01T20:00:13.966Z,38.30
2022-12-01T20:04:08.347Z,47.90
2022-12-01T20:08:03.239Z,53.13
2022-12-01T20:11:56.528Z,48.67
2022-12-01T20:15:49.573Z,47.80
2022-12-01T20:19:42.985Z,45.95
2022-12-01T20:23:36.535Z,49.25
2022-12-01T20:27:30.348Z,55.65
2022-12-01T20:31:26.659Z,62.65
2022-12-01T20:35:19.677Z,51.22
2022-12-01T20:39:13.329Z,51.58
2022-12-01T20:43:05.790Z,47.63
2022-12-01T20:46:58.936Z,42.03
2022-12-01T20:50:52.262Z,47.92
2022-12-01T20:54:45.337Z,38.90
2022-12-01T20:58:39.886Z,35.60
2022-12-01T21:02:32.452Z,33.83
2022-12-01T21:06:24.980Z,33.42
2022-12-01T21:10:20.172Z,33.60
2022-12-01T21:14:23.840Z,33.00
2022-12-01T21:18:23.258Z,32.72
2022-12-01T21:22:16.363Z,33.58
2022-12-01T21:26:15.790Z,30.92
2022-12-01T21:30:17.304Z,32.35
2022-12-01T21:34:27.291Z,31.35
2022-12-01T21:38:22.126Z,31.45
2022-12-01T21:42:21.728Z,35.80
2022-12-01T21:46:16.362Z,33.35
2022-12-01T21:50:16.659Z,28.80
2022-12-01T21:54:19.047Z,30.25
2022-12-01T21:58:24.937Z,29.33
2022-12-01T22:02:42.332Z,33.60
2022-12-01T22:06:41.362Z,30.73
2022-12-01T22:10:57.866Z,40.00
2022-12-01T22:14:50.937Z,45.40
2022-12-01T22:18:50.928Z,32.30
2022-12-01T22:22:43.957Z,29.58
2022-12-01T22:26:39.044Z,36.33
2022-12-01T22:30:31.918Z,34.83
2022-12-01T22:34:24.483Z,39.25
2022-12-01T22:38:37.765Z,38.78
2022-12-01T22:42:33.169Z,39.10
2022-12-01T22:46:34.865Z,42.20
2022-12-01T22:50:32.859Z,37.25
2022-12-01T22:54:28.394Z,34.20
2022-12-01T22:58:30.489Z,35.33
2022-12-01T23:02:35.003Z,33.90
2022-12-01T23:06:55.596Z,28.80
2022-12-01T23:10:48.304Z,27.63
2022-12-01T23:14:48.245Z,26.67
2022-12-01T23:18:41.034Z,27.55
2022-12-01T23:22:33.415Z,23.88
2022-12-01T23:26:26.029Z,25.95
2022-12-01T23:30:20.479Z,26.27
2022-12-01T23:34:15.508Z,27.25
2022-12-01T23:38:15.820Z,24.63
2022-12-01T23:42:09.926Z,25.17
2022-12-01T23:46:07.790Z,26.38
2022-12-01T23:50:03.446Z,34.72
2022-12-01T23:53:57.807Z,41.88
2022-12-01T23:57:50.536Z,25.48
